Time,TemperatureF,DewpointF,PressureIn,WindDirection,WindDirectionDegrees,WindSpeedMPH,WindSpeedGustMPH,Humidity,HourlyPrecipIn,Conditions,Clouds,dailyrainin,SoftwareType,DateUTC
2013-04-26 00:02:00,47.9,23.4,30.03,NE,45,3.1,6.9,38,0.00,,,0.00,WUHU216HW,2013-04-26 06:02:00,
2013-04-26 00:07:00,47.9,23.4,30.03,ENE,68,3.6,4.7,38,0.00,,,0.00,WUHU216HW,2013-04-26 06:07:00,
2013-04-26 00:12:00,47.7,23.2,30.04,ENE,68,4.5,4.5,38,0.00,,,0.00,WUHU216HW,2013-04-26 06:12:00,
2013-04-26 00:17:00,47.2,22.7,30.04,SE,135,1.1,4.5,38,0.00,,,0.00,WUHU216HW,2013-04-26 06:17:00,
2013-04-26 00:22:00,46.4,21.4,30.04,SE,135,0.0,2.7,37,0.00,,,0.00,WUHU216HW,2013-04-26 06:22:00,
2013-04-26 00:27:00,45.9,20.9,30.05,NNE,23,1.8,2.0,37,0.00,,,0.00,WUHU216HW,2013-04-26 06:27:00,
2013-04-26 00:32:00,45.5,22.0,30.05,NE,45,4.9,5.1,39,0.00,,,0.00,WUHU216HW,2013-04-26 06:32:00,
2013-04-26 00:37:00,45.4,23.0,30.05,NE,45,6.3,6.3,41,0.00,,,0.00,WUHU216HW,2013-04-26 06:37:00,
2013-04-26 00:42:00,45.2,22.8,30.05,ENE,68,6.5,6.7,41,0.00,,,0.00,WUHU216HW,2013-04-26 06:42:00,
2013-04-26 00:47:00,44.8,23.1,30.05,NE,45,5.8,6.7,42,0.00,,,0.00,WUHU216HW,2013-04-26 06:47:00,
2013-04-26 00:52:00,44.6,22.9,30.05,NE,45,4.9,5.8,42,0.00,,,0.00,WUHU216HW,2013-04-26 06:52:00,
2013-04-26 00:58:00,44.6,23.4,30.05,ENE,68,1.3,5.4,43,0.00,,,0.00,WUHU216HW,2013-04-26 06:58:00,
2013-04-26 01:02:00,44.3,23.0,30.05,East,90,1.8,5.4,43,0.00,,,0.00,WUHU216HW,2013-04-26 07:02:00,
2013-04-26 01:08:00,43.9,22.2,30.06,ESE,113,2.7,5.1,42,0.00,,,0.00,WUHU216HW,2013-04-26 07:08:00,
2013-04-26 01:13:00,43.6,21.9,30.06,SE,135,0.9,3.4,42,0.00,,,0.00,WUHU216HW,2013-04-26 07:13:00,
2013-04-26 01:18:00,42.8,21.2,30.06,SE,135,0.9,2.5,42,0.00,,,0.00,WUHU216HW,2013-04-26 07:18:00,
2013-04-26 01:23:00,42.1,21.2,30.06,NE,45,2.5,2.7,43,0.00,,,0.00,WUHU216HW,2013-04-26 07:23:00,
2013-04-26 01:28:00,41.8,21.3,30.07,ESE,113,4.7,4.7,44,0.00,,,0.00,WUHU216HW,2013-04-26 07:28:00,
2013-04-26 01:32:00,41.6,21.2,30.07,SE,135,0.7,4.7,44,0.00,,,0.00,WUHU216HW,2013-04-26 07:32:00,
2013-04-26 01:38:00,41.6,21.2,30.07,ENE,68,2.2,2.2,44,0.00,,,0.00,WUHU216HW,2013-04-26 07:38:00,
2013-04-26 01:42:00,41.2,20.8,30.07,ENE,68,3.1,3.6,44,0.00,,,0.00,WUHU216HW,2013-04-26 07:42:00,
2013-04-26 01:48:00,41.0,21.7,30.07,NNE,23,0.4,3.6,46,0.00,,,0.00,WUHU216HW,2013-04-26 07:48:00,
2013-04-26 01:54:00,40.7,21.3,30.07,ENE,68,2.9,3.4,46,0.00,,,0.00,WUHU216HW,2013-04-26 07:54:00,
2013-04-26 01:59:00,40.7,21.3,30.07,East,90,2.0,2.9,46,0.00,,,0.00,WUHU216HW,2013-04-26 07:59:00,
2013-04-26 02:04:00,40.3,21.1,30.07,East,90,0.4,3.1,46,0.00,,,0.00,WUHU216HW,2013-04-26 08:04:00,
2013-04-26 02:09:00,40.0,20.7,30.07,ESE,113,1.3,3.1,46,0.00,,,0.00,WUHU216HW,2013-04-26 08:09:00,
2013-04-26 02:14:00,39.6,20.3,30.07,East,90,0.9,1.3,46,0.00,,,0.00,WUHU216HW,2013-04-26 08:14:00,
2013-04-26 02:19:00,39.4,20.3,30.07,East,90,0.4,2.2,46,0.00,,,0.00,WUHU216HW,2013-04-26 08:19:00,
2013-04-26 02:24:00,39.2,20.1,30.08,East,90,1.1,2.2,46,0.00,,,0.00,WUHU216HW,2013-04-26 08:24:00,
2013-04-26 02:29:00,39.1,20.4,30.08,East,90,1.8,1.8,47,0.00,,,0.00,WUHU216HW,2013-04-26 08:29:00,
2013-04-26 02:34:00,38.7,20.1,30.08,East,90,1.3,1.8,47,0.00,,,0.00,WUHU216HW,2013-04-26 08:34:00,
2013-04-26 02:39:00,38.5,20.4,30.08,ENE,68,1.3,1.3,48,0.00,,,0.00,WUHU216HW,2013-04-26 08:39:00,
2013-04-26 02:44:00,38.5,20.4,30.08,ENE,68,0.2,1.3,48,0.00,,,0.00,WUHU216HW,2013-04-26 08:44:00,
2013-04-26 02:49:00,38.5,20.4,30.08,ENE,68,1.3,1.3,48,0.00,,,0.00,WUHU216HW,2013-04-26 08:49:00,
2013-04-26 02:54:00,38.2,20.6,30.08,ENE,68,1.1,1.8,49,0.00,,,0.00,WUHU216HW,2013-04-26 08:54:00,
2013-04-26 02:59:00,38.2,20.2,30.08,ENE,68,0.0,1.8,48,0.00,,,0.00,WUHU216HW,2013-04-26 08:59:00,
2013-04-26 03:04:00,37.8,20.9,30.08,NNE,23,1.1,1.1,50,0.00,,,0.00,WUHU216HW,2013-04-26 09:04:00,
2013-04-26 03:09:00,38.0,21.0,30.08,NNE,23,0.0,1.1,50,0.00,,,0.00,WUHU216HW,2013-04-26 09:09:00,
2013-04-26 03:14:00,38.0,21.4,30.08,ENE,68,1.1,1.3,51,0.00,,,0.00,WUHU216HW,2013-04-26 09:14:00,
2013-04-26 03:19:00,38.3,21.8,30.08,ESE,113,3.1,3.1,51,0.00,,,0.00,WUHU216HW,2013-04-26 09:19:00,
2013-04-26 03:24:00,38.5,22.8,30.08,SE,135,1.8,3.1,53,0.00,,,0.00,WUHU216HW,2013-04-26 09:24:00,
2013-04-26 03:29:00,38.9,22.7,30.08,SE,135,0.0,2.5,52,0.00,,,0.00,WUHU216HW,2013-04-26 09:29:00,
2013-04-26 03:34:00,38.7,21.7,30.08,SE,135,0.0,2.2,50,0.00,,,0.00,WUHU216HW,2013-04-26 09:34:00,
2013-04-26 03:39:00,38.3,21.3,30.09,SE,135,0.9,1.1,50,0.00,,,0.00,WUHU216HW,2013-04-26 09:39:00,
2013-04-26 03:44:00,37.8,20.9,30.09,SE,135,1.1,1.1,50,0.00,,,0.00,WUHU216HW,2013-04-26 09:44:00,
2013-04-26 03:49:00,37.3,20.3,30.09,SE,135,1.1,1.1,50,0.00,,,0.00,WUHU216HW,2013-04-26 09:49:00,
2013-04-26 03:54:00,36.7,20.4,30.09,SE,135,0.9,1.1,51,0.00,,,0.00,WUHU216HW,2013-04-26 09:54:00,
2013-04-26 03:59:00,36.4,20.0,30.09,East,90,1.1,1.1,51,0.00,,,0.00,WUHU216HW,2013-04-26 09:59:00,
2013-04-26 04:04:00,36.0,20.1,30.09,NE,45,2.5,2.5,52,0.00,,,0.00,WUHU216HW,2013-04-26 10:04:00,
2013-04-26 04:09:00,36.0,21.0,30.09,NE,45,3.1,3.1,54,0.00,,,0.00,WUHU216HW,2013-04-26 10:09:00,
2013-04-26 04:14:00,36.2,22.4,30.09,NE,45,3.1,3.4,57,0.00,,,0.00,WUHU216HW,2013-04-26 10:14:00,
2013-04-26 04:19:00,36.4,23.1,30.09,NE,45,1.8,3.4,58,0.00,,,0.00,WUHU216HW,2013-04-26 10:19:00,
2013-04-26 04:24:00,36.5,22.3,30.10,East,90,1.3,3.4,56,0.00,,,0.00,WUHU216HW,2013-04-26 10:24:00,
2013-04-26 04:29:00,36.4,21.7,30.10,SE,135,0.9,2.7,55,0.00,,,0.00,WUHU216HW,2013-04-26 10:29:00,
2013-04-26 04:34:00,35.8,20.8,30.10,SE,135,0.0,1.8,54,0.00,,,0.00,WUHU216HW,2013-04-26 10:34:00,
2013-04-26 04:39:00,35.3,20.3,30.11,ESE,113,1.8,1.8,54,0.00,,,0.00,WUHU216HW,2013-04-26 10:39:00,
2013-04-26 04:44:00,34.9,20.3,30.11,ESE,113,0.4,1.8,55,0.00,,,0.00,WUHU216HW,2013-04-26 10:44:00,
2013-04-26 04:49:00,34.7,20.2,30.11,ESE,113,0.0,1.6,55,0.00,,,0.00,WUHU216HW,2013-04-26 10:49:00,
2013-04-26 04:54:00,34.4,19.8,30.11,ESE,113,0.0,0.9,55,0.00,,,0.00,WUHU216HW,2013-04-26 10:54:00,
2013-04-26 04:59:00,34.0,19.9,30.12,ESE,113,0.0,0.0,56,0.00,,,0.00,WUHU216HW,2013-04-26 10:59:00,
2013-04-26 05:04:00,33.7,19.5,30.12,ENE,68,2.0,2.0,56,0.00,,,0.00,WUHU216HW,2013-04-26 11:04:00,
2013-04-26 05:09:00,33.5,19.4,30.12,ENE,68,0.0,2.2,56,0.00,,,0.00,WUHU216HW,2013-04-26 11:09:00,
2013-04-26 05:14:00,33.5,20.3,30.12,NE,45,2.9,3.1,58,0.00,,,0.00,WUHU216HW,2013-04-26 11:14:00,
2013-04-26 05:19:00,33.7,21.2,30.12,NE,45,2.9,3.4,60,0.00,,,0.00,WUHU216HW,2013-04-26 11:19:00,
2013-04-26 05:24:00,34.0,22.0,30.12,NE,45,2.9,3.6,61,0.00,,,0.00,WUHU216HW,2013-04-26 11:24:00,
2013-04-26 05:29:00,34.2,21.8,30.12,NE,45,2.5,3.6,60,0.00,,,0.00,WUHU216HW,2013-04-26 11:29:00,
2013-04-26 05:34:00,34.2,22.5,30.11,NNE,23,2.5,2.9,62,0.00,,,0.00,WUHU216HW,2013-04-26 11:34:00,
2013-04-26 05:39:00,34.2,21.8,30.11,NNE,23,2.0,3.1,60,0.00,,,0.00,WUHU216HW,2013-04-26 11:39:00,
2013-04-26 05:44:00,34.0,21.6,30.11,ENE,68,0.4,3.1,60,0.00,,,0.00,WUHU216HW,2013-04-26 11:44:00,
2013-04-26 05:49:00,33.8,21.4,30.11,North,0,1.1,1.8,60,0.00,,,0.00,WUHU216HW,2013-04-26 11:49:00,
2013-04-26 05:54:00,33.7,22.0,30.12,NNW,338,2.2,2.2,62,0.00,,,0.00,WUHU216HW,2013-04-26 11:54:00,
2013-04-26 05:59:00,33.7,21.6,30.12,NE,45,2.2,2.5,61,0.00,,,0.00,WUHU216HW,2013-04-26 11:59:00,
2013-04-26 06:04:00,33.5,21.4,30.12,ESE,113,0.2,2.5,61,0.00,,,0.00,WUHU216HW,2013-04-26 12:04:00,
2013-04-26 06:09:00,33.3,21.0,30.12,ESE,113,0.0,1.8,60,0.00,,,0.00,WUHU216HW,2013-04-26 12:09:00,
2013-04-26 06:14:00,32.8,20.8,30.12,NNE,23,1.1,1.8,61,0.00,,,0.00,WUHU216HW,2013-04-26 12:14:00,
2013-04-26 06:19:00,32.0,19.8,30.12,NNE,23,0.0,1.8,60,0.00,,,0.00,WUHU216HW,2013-04-26 12:19:00,
2013-04-26 06:24:00,31.9,20.0,30.12,NNW,338,0.2,1.3,61,0.00,,,0.00,WUHU216HW,2013-04-26 12:24:00,
2013-04-26 06:29:00,32.0,20.9,30.12,NW,315,0.0,1.3,63,0.00,,,0.00,WUHU216HW,2013-04-26 12:29:00,
2013-04-26 06:34:00,32.0,20.9,30.13,NNW,338,0.4,1.1,63,0.00,,,0.00,WUHU216HW,2013-04-26 12:34:00,
2013-04-26 06:39:00,31.9,21.1,30.13,NE,45,0.9,1.3,64,0.00,,,0.00,WUHU216HW,2013-04-26 12:39:00,
2013-04-26 06:44:00,32.0,22.0,30.13,NE,45,2.7,2.7,66,0.00,,,0.00,WUHU216HW,2013-04-26 12:44:00,
2013-04-26 06:49:00,32.0,22.0,30.13,NE,45,2.5,3.6,66,0.00,,,0.00,WUHU216HW,2013-04-26 12:49:00,
2013-04-26 06:54:00,32.6,22.4,30.13,NE,45,3.1,4.0,66,0.00,,,0.00,WUHU216HW,2013-04-26 12:54:00,
2013-04-26 06:59:00,32.8,22.6,30.13,NNE,23,2.5,4.0,66,0.00,,,0.00,WUHU216HW,2013-04-26 12:59:00,
2013-04-26 07:04:00,33.1,24.0,30.13,North,0,2.2,2.9,69,0.00,,,0.00,WUHU216HW,2013-04-26 13:04:00,
2013-04-26 07:09:00,33.8,24.3,30.14,North,0,1.8,2.9,68,0.00,,,0.00,WUHU216HW,2013-04-26 13:09:00,
2013-04-26 07:14:00,34.4,24.5,30.14,NNW,338,1.3,1.8,67,0.00,,,0.00,WUHU216HW,2013-04-26 13:14:00,
2013-04-26 07:19:00,34.9,25.0,30.14,NNW,338,1.1,1.6,67,0.00,,,0.00,WUHU216HW,2013-04-26 13:19:00,
2013-04-26 07:24:00,35.5,25.2,30.14,NNW,338,0.9,1.6,66,0.00,,,0.00,WUHU216HW,2013-04-26 13:24:00,
2013-04-26 07:29:00,35.8,25.2,30.14,North,0,1.6,1.6,65,0.00,,,0.00,WUHU216HW,2013-04-26 13:29:00,
2013-04-26 07:34:00,36.5,25.1,30.15,NNE,23,1.3,1.6,63,0.00,,,0.00,WUHU216HW,2013-04-26 13:34:00,
2013-04-26 07:39:00,37.3,25.8,30.15,ENE,68,2.5,3.4,63,0.00,,,0.00,WUHU216HW,2013-04-26 13:39:00,
2013-04-26 07:44:00,38.3,26.8,30.15,ENE,68,4.0,4.0,63,0.00,,,0.00,WUHU216HW,2013-04-26 13:44:00,
2013-04-26 07:49:00,38.9,26.6,30.15,SE,135,1.6,4.0,61,0.00,,,0.00,WUHU216HW,2013-04-26 13:49:00,
2013-04-26 07:54:00,39.6,26.8,30.15,SE,135,3.4,3.4,60,0.00,,,0.00,WUHU216HW,2013-04-26 13:54:00,
2013-04-26 07:59:00,40.3,27.1,30.15,SE,135,2.2,3.4,59,0.00,,,0.00,WUHU216HW,2013-04-26 13:59:00,
2013-04-26 08:04:00,41.0,27.8,30.15,SSE,158,2.5,2.5,59,0.00,,,0.00,WUHU216HW,2013-04-26 14:04:00,
2013-04-26 08:09:00,41.8,28.0,30.15,SE,135,1.8,2.5,58,0.00,,,0.00,WUHU216HW,2013-04-26 14:09:00,
2013-04-26 08:14:00,42.1,27.5,30.16,SSE,158,1.6,2.5,56,0.00,,,0.00,WUHU216HW,2013-04-26 14:14:00,
2013-04-26 08:19:00,42.3,27.2,30.16,ESE,113,2.0,2.5,55,0.00,,,0.00,WUHU216HW,2013-04-26 14:19:00,
2013-04-26 08:24:00,42.5,27.4,30.16,SE,135,1.1,2.0,55,0.00,,,0.00,WUHU216HW,2013-04-26 14:24:00,
2013-04-26 08:29:00,42.8,27.7,30.16,SE,135,1.6,2.2,55,0.00,,,0.00,WUHU216HW,2013-04-26 14:29:00,
2013-04-26 08:34:00,43.2,27.6,30.16,SSW,203,1.8,2.2,54,0.00,,,0.00,WUHU216HW,2013-04-26 14:34:00,
2013-04-26 08:39:00,43.9,28.3,30.16,SSW,203,1.8,2.5,54,0.00,,,0.00,WUHU216HW,2013-04-26 14:39:00,
2013-04-26 08:44:00,44.5,28.4,30.16,SSE,158,2.5,3.1,53,0.00,,,0.00,WUHU216HW,2013-04-26 14:44:00,
2013-04-26 08:49:00,45.2,29.0,30.16,SSW,203,2.0,3.1,53,0.00,,,0.00,WUHU216HW,2013-04-26 14:49:00,
2013-04-26 08:54:00,45.7,29.5,30.16,SSE,158,0.4,3.1,53,0.00,,,0.00,WUHU216HW,2013-04-26 14:54:00,
2013-04-26 08:59:00,46.4,29.7,30.16,ESE,113,1.8,2.9,52,0.00,,,0.00,WUHU216HW,2013-04-26 14:59:00,
2013-04-26 09:04:00,47.0,29.7,30.16,ESE,113,2.2,2.9,51,0.00,,,0.00,WUHU216HW,2013-04-26 15:04:00,
2013-04-26 09:09:00,47.5,29.8,30.16,SE,135,4.0,4.0,50,0.00,,,0.00,WUHU216HW,2013-04-26 15:09:00,
2013-04-26 09:14:00,48.6,29.7,30.16,SSE,158,4.3,6.0,48,0.00,,,0.00,WUHU216HW,2013-04-26 15:14:00,
2013-04-26 09:19:00,49.7,28.0,30.16,SSE,158,8.3,8.5,43,0.00,,,0.00,WUHU216HW,2013-04-26 15:19:00,
2013-04-26 09:24:00,50.8,29.0,30.16,South,180,6.5,8.5,43,0.00,,,0.00,WUHU216HW,2013-04-26 15:24:00,
2013-04-26 09:29:00,51.5,28.5,30.16,SSW,203,4.3,7.2,41,0.00,,,0.00,WUHU216HW,2013-04-26 15:29:00,
2013-04-26 09:34:00,52.2,28.6,30.16,South,180,9.2,9.2,40,0.00,,,0.00,WUHU216HW,2013-04-26 15:34:00,
2013-04-26 09:39:00,52.9,27.9,30.16,SSW,203,3.8,9.2,38,0.00,,,0.00,WUHU216HW,2013-04-26 15:39:00,
2013-04-26 09:44:00,53.3,29.5,30.16,South,180,7.6,7.6,40,0.00,,,0.00,WUHU216HW,2013-04-26 15:44:00,
2013-04-26 09:49:00,53.8,29.3,30.16,SSW,203,4.3,8.1,39,0.00,,,0.00,WUHU216HW,2013-04-26 15:49:00,
2013-04-26 09:54:00,54.2,29.0,30.16,SSE,158,6.7,8.1,38,0.00,,,0.00,WUHU216HW,2013-04-26 15:54:00,
2013-04-26 09:59:00,54.7,30.2,30.16,SSE,158,4.5,7.2,39,0.00,,,0.00,WUHU216HW,2013-04-26 15:59:00,
2013-04-26 10:04:00,55.4,30.1,30.16,SW,225,9.2,9.2,38,0.00,,,0.00,WUHU216HW,2013-04-26 16:04:00,
2013-04-26 10:09:00,55.8,29.0,30.16,SSW,203,5.4,9.2,36,0.00,,,0.00,WUHU216HW,2013-04-26 16:09:00,
2013-04-26 10:14:00,56.2,29.3,30.16,SSW,203,7.4,9.2,36,0.00,,,0.00,WUHU216HW,2013-04-26 16:14:00,
2013-04-26 10:19:00,56.5,28.3,30.16,SW,225,7.8,9.2,34,0.00,,,0.00,WUHU216HW,2013-04-26 16:19:00,
2013-04-26 10:24:00,56.9,28.6,30.16,SSW,203,2.5,8.9,34,0.00,,,0.00,WUHU216HW,2013-04-26 16:24:00,
2013-04-26 10:29:00,57.2,28.9,30.16,SSW,203,8.7,8.9,34,0.00,,,0.00,WUHU216HW,2013-04-26 16:29:00,
2013-04-26 10:34:00,57.8,28.7,30.16,South,180,3.8,8.7,33,0.00,,,0.00,WUHU216HW,2013-04-26 16:34:00,
2013-04-26 10:39:00,58.1,29.0,30.16,SE,135,6.9,8.5,33,0.00,,,0.00,WUHU216HW,2013-04-26 16:39:00,
2013-04-26 10:44:00,58.5,29.3,30.16,SSE,158,5.1,8.5,33,0.00,,,0.00,WUHU216HW,2013-04-26 16:44:00,
2013-04-26 10:49:00,58.9,29.0,30.16,SW,225,7.6,9.2,32,0.00,,,0.00,WUHU216HW,2013-04-26 16:49:00,
2013-04-26 10:54:00,59.4,29.4,30.16,SW,225,6.3,10.3,32,0.00,,,0.00,WUHU216HW,2013-04-26 16:54:00,
2013-04-26 10:59:00,59.9,29.2,30.16,SSW,203,6.9,12.5,31,0.00,,,0.00,WUHU216HW,2013-04-26 16:59:00,
2013-04-26 11:04:00,60.1,30.0,30.16,SSW,203,8.3,12.5,32,0.00,,,0.00,WUHU216HW,2013-04-26 17:04:00,
2013-04-26 11:09:00,60.7,30.4,30.15,SSW,203,6.5,10.3,32,0.00,,,0.00,WUHU216HW,2013-04-26 17:09:00,
2013-04-26 11:14:00,61.0,30.1,30.15,SSE,158,8.5,12.3,31,0.00,,,0.00,WUHU216HW,2013-04-26 17:14:00,
2013-04-26 11:19:00,61.2,27.5,30.15,SSW,203,6.0,12.3,28,0.00,,,0.00,WUHU216HW,2013-04-26 17:19:00,
2013-04-26 11:24:00,61.4,27.7,30.15,South,180,11.9,13.6,28,0.00,,,0.00,WUHU216HW,2013-04-26 17:24:00,
2013-04-26 11:29:00,62.1,28.4,30.15,South,180,11.4,13.6,28,0.00,,,0.00,WUHU216HW,2013-04-26 17:29:00,
2013-04-26 11:34:00,62.3,27.5,30.15,South,180,12.8,12.8,27,0.00,,,0.00,WUHU216HW,2013-04-26 17:34:00,
2013-04-26 11:39:00,62.6,27.9,30.14,South,180,8.7,12.8,27,0.00,,,0.00,WUHU216HW,2013-04-26 17:39:00,
2013-04-26 11:44:00,63.0,28.2,30.14,SSE,158,8.3,11.9,27,0.00,,,0.00,WUHU216HW,2013-04-26 17:44:00,
2013-04-26 11:49:00,63.0,26.2,30.14,SSE,158,11.9,11.9,25,0.00,,,0.00,WUHU216HW,2013-04-26 17:49:00,
2013-04-26 11:54:00,63.0,26.2,30.14,SSW,203,8.9,11.9,25,0.00,,,0.00,WUHU216HW,2013-04-26 17:54:00,
2013-04-26 11:59:00,62.8,25.1,30.14,WSW,248,13.4,13.4,24,0.00,,,0.00,WUHU216HW,2013-04-26 17:59:00,
2013-04-26 12:04:00,62.5,25.7,30.14,South,180,5.4,13.4,25,0.00,,,0.00,WUHU216HW,2013-04-26 18:04:00,
2013-04-26 12:09:00,63.2,24.4,30.14,SW,225,13.4,13.4,23,0.00,,,0.00,WUHU216HW,2013-04-26 18:09:00,
2013-04-26 12:14:00,63.5,25.8,30.14,SW,225,9.6,13.4,24,0.00,,,0.00,WUHU216HW,2013-04-26 18:14:00,
2013-04-26 12:20:00,63.0,24.3,30.13,SW,225,4.0,13.2,23,0.00,,,0.00,WUHU216HW,2013-04-26 18:20:00,
2013-04-26 12:25:00,63.2,25.4,30.13,WSW,248,11.0,11.9,24,0.00,,,0.00,WUHU216HW,2013-04-26 18:25:00,
2013-04-26 12:29:00,63.4,24.6,30.12,West,270,10.3,11.9,23,0.00,,,0.00,WUHU216HW,2013-04-26 18:29:00,
2013-04-26 12:35:00,64.1,27.2,30.12,SSE,158,7.6,15.2,25,0.00,,,0.00,WUHU216HW,2013-04-26 18:35:00,
2013-04-26 12:40:00,64.8,26.7,30.12,SSW,203,11.0,15.2,24,0.00,,,0.00,WUHU216HW,2013-04-26 18:40:00,
2013-04-26 12:45:00,65.0,26.9,30.12,South,180,7.6,13.2,24,0.00,,,0.00,WUHU216HW,2013-04-26 18:45:00,
2013-04-26 12:50:00,65.3,27.2,30.12,SE,135,5.8,10.5,24,0.00,,,0.00,WUHU216HW,2013-04-26 18:50:00,
2013-04-26 12:55:00,65.5,27.4,30.12,SSW,203,7.6,11.4,24,0.00,,,0.00,WUHU216HW,2013-04-26 18:55:00,
2013-04-26 13:00:00,65.9,28.7,30.12,SSW,203,6.3,11.4,25,0.00,,,0.00,WUHU216HW,2013-04-26 19:00:00,
2013-04-26 13:05:00,66.2,27.0,30.12,SE,135,8.1,11.4,23,0.00,,,0.00,WUHU216HW,2013-04-26 19:05:00,
2013-04-26 13:10:00,66.2,27.0,30.12,South,180,8.5,11.0,23,0.00,,,0.00,WUHU216HW,2013-04-26 19:10:00,
2013-04-26 13:15:00,66.4,28.2,30.12,SSE,158,9.6,11.2,24,0.00,,,0.00,WUHU216HW,2013-04-26 19:15:00,
2013-04-26 13:20:00,66.8,26.5,30.12,SSE,158,9.8,13.9,22,0.00,,,0.00,WUHU216HW,2013-04-26 19:20:00,
2013-04-26 13:25:00,67.3,26.9,30.12,SSE,158,9.8,13.9,22,0.00,,,0.00,WUHU216HW,2013-04-26 19:25:00,
2013-04-26 13:30:00,67.3,27.9,30.12,SE,135,11.4,13.9,23,0.00,,,0.00,WUHU216HW,2013-04-26 19:30:00,
2013-04-26 13:35:00,67.7,28.3,30.11,SE,135,3.4,11.4,23,0.00,,,0.00,WUHU216HW,2013-04-26 19:35:00,
2013-04-26 13:40:00,67.7,27.2,30.12,WSW,248,9.2,11.4,22,0.00,,,0.00,WUHU216HW,2013-04-26 19:40:00,
2013-04-26 13:45:00,67.3,27.9,30.12,SE,135,3.4,11.4,23,0.00,,,0.00,WUHU216HW,2013-04-26 19:45:00,
2013-04-26 13:50:00,67.5,28.1,30.11,SE,135,4.3,9.8,23,0.00,,,0.00,WUHU216HW,2013-04-26 19:50:00,
2013-04-26 13:55:00,67.9,27.4,30.11,South,180,9.4,9.8,22,0.00,,,0.00,WUHU216HW,2013-04-26 19:55:00,
2013-04-26 14:00:00,68.4,26.8,30.11,SSE,158,2.5,10.1,21,0.00,,,0.00,WUHU216HW,2013-04-26 20:00:00,
2013-04-26 14:05:00,68.8,27.1,30.10,SW,225,7.2,13.4,21,0.00,,,0.00,WUHU216HW,2013-04-26 20:05:00,
2013-04-26 14:10:00,69.1,24.9,30.10,WSW,248,7.8,13.4,19,0.00,,,0.00,WUHU216HW,2013-04-26 20:10:00,
2013-04-26 14:15:00,68.9,26.3,30.10,SW,225,6.5,9.2,20,0.00,,,0.00,WUHU216HW,2013-04-26 20:15:00,
2013-04-26 14:20:00,68.9,24.7,30.10,South,180,5.1,9.6,19,0.00,,,0.00,WUHU216HW,2013-04-26 20:20:00,
2013-04-26 14:25:00,68.9,23.0,30.09,SW,225,3.8,9.6,18,0.00,,,0.00,WUHU216HW,2013-04-26 20:25:00,
2013-04-26 14:30:00,69.1,23.2,30.09,SW,225,10.5,11.9,18,0.00,,,0.00,WUHU216HW,2013-04-26 20:30:00,
2013-04-26 14:35:00,69.7,23.6,30.09,WSW,248,7.4,11.9,18,0.00,,,0.00,WUHU216HW,2013-04-26 20:35:00,
2013-04-26 14:40:00,69.8,23.8,30.09,SSW,203,4.9,11.2,18,0.00,,,0.00,WUHU216HW,2013-04-26 20:40:00,
2013-04-26 14:45:00,70.2,25.7,30.09,SSE,158,13.4,13.4,19,0.00,,,0.00,WUHU216HW,2013-04-26 20:45:00,
2013-04-26 14:50:00,70.6,22.7,30.10,SSE,158,9.2,13.4,17,0.00,,,0.00,WUHU216HW,2013-04-26 20:50:00,
2013-04-26 14:55:00,70.7,24.5,30.09,SSE,158,11.4,13.2,18,0.00,,,0.00,WUHU216HW,2013-04-26 20:55:00,
2013-04-26 15:00:00,70.6,22.7,30.09,SSW,203,7.8,11.4,17,0.00,,,0.00,WUHU216HW,2013-04-26 21:00:00,
2013-04-26 15:05:00,71.1,23.1,30.09,South,180,4.0,11.4,17,0.00,,,0.00,WUHU216HW,2013-04-26 21:05:00,
2013-04-26 15:10:00,71.1,23.1,30.09,WSW,248,13.0,13.0,17,0.00,,,0.00,WUHU216HW,2013-04-26 21:10:00,
2013-04-26 15:15:00,70.9,21.4,30.09,SW,225,5.6,13.4,16,0.00,,,0.00,WUHU216HW,2013-04-26 21:15:00,
2013-04-26 15:20:00,70.9,23.1,30.09,SSW,203,11.4,13.4,17,0.00,,,0.00,WUHU216HW,2013-04-26 21:20:00,
2013-04-26 15:25:00,71.3,23.3,30.09,South,180,8.9,12.1,17,0.00,,,0.00,WUHU216HW,2013-04-26 21:25:00,
2013-04-26 15:30:00,71.6,22.0,30.09,SW,225,9.8,12.1,16,0.00,,,0.00,WUHU216HW,2013-04-26 21:30:00,
2013-04-26 15:35:00,71.5,21.8,30.08,SSW,203,9.8,16.3,16,0.00,,,0.00,WUHU216HW,2013-04-26 21:35:00,
2013-04-26 15:40:00,71.6,22.0,30.08,SW,225,6.5,16.3,16,0.00,,,0.00,WUHU216HW,2013-04-26 21:40:00,
2013-04-26 15:45:00,71.6,22.0,30.08,WNW,293,11.4,15.0,16,0.00,,,0.00,WUHU216HW,2013-04-26 21:45:00,
2013-04-26 15:50:00,71.6,22.0,30.08,WSW,248,11.9,15.0,16,0.00,,,0.00,WUHU216HW,2013-04-26 21:50:00,
2013-04-26 15:55:00,72.0,22.2,30.08,SSW,203,13.6,13.6,16,0.00,,,0.00,WUHU216HW,2013-04-26 21:55:00,
2013-04-26 16:00:00,72.4,22.6,30.08,South,180,9.2,13.6,16,0.00,,,0.00,WUHU216HW,2013-04-26 22:00:00,
2013-04-26 16:05:00,72.5,22.8,30.08,WSW,248,8.5,11.9,16,0.00,,,0.00,WUHU216HW,2013-04-26 22:05:00,
2013-04-26 16:10:00,72.4,22.6,30.07,SSW,203,11.6,15.4,16,0.00,,,0.00,WUHU216HW,2013-04-26 22:10:00,
2013-04-26 16:15:00,72.7,22.9,30.07,SSW,203,10.5,15.4,16,0.00,,,0.00,WUHU216HW,2013-04-26 22:15:00,
2013-04-26 16:20:00,72.7,22.9,30.07,SW,225,9.8,11.4,16,0.00,,,0.00,WUHU216HW,2013-04-26 22:20:00,
2013-04-26 16:25:00,72.7,21.2,30.07,SSW,203,11.0,11.4,15,0.00,,,0.00,WUHU216HW,2013-04-26 22:25:00,
2013-04-26 16:30:00,73.1,23.2,30.06,SW,225,9.4,11.4,16,0.00,,,0.00,WUHU216HW,2013-04-26 22:30:00,
2013-04-26 16:35:00,73.4,23.5,30.07,SSW,203,10.5,14.1,16,0.00,,,0.00,WUHU216HW,2013-04-26 22:35:00,
2013-04-26 16:40:00,73.3,21.7,30.06,SSW,203,13.4,14.3,15,0.00,,,0.00,WUHU216HW,2013-04-26 22:40:00,
2013-04-26 16:45:00,73.4,21.9,30.06,WSW,248,7.4,14.3,15,0.00,,,0.00,WUHU216HW,2013-04-26 22:45:00,
2013-04-26 16:50:00,73.6,23.7,30.06,SSW,203,7.4,11.9,16,0.00,,,0.00,WUHU216HW,2013-04-26 22:50:00,
2013-04-26 16:55:00,74.2,22.4,30.06,South,180,15.7,15.7,15,0.00,,,0.00,WUHU216HW,2013-04-26 22:55:00,
2013-04-26 17:00:00,74.7,22.9,30.06,SSW,203,14.8,15.7,15,0.00,,,0.00,WUHU216HW,2013-04-26 23:00:00,
2013-04-26 17:07:00,75.2,19.9,30.06,SSW,203,9.2,14.8,13,0.00,,,0.00,WUHU216HW,2013-04-26 23:07:00,
2013-04-26 17:12:00,75.8,22.0,30.06,SW,225,10.5,14.3,14,0.00,,,0.00,WUHU216HW,2013-04-26 23:12:00,
2013-04-26 17:17:00,76.9,21.3,30.06,SSE,158,10.5,12.8,13,0.00,,,0.00,WUHU216HW,2013-04-26 23:17:00,
2013-04-26 17:22:00,78.1,22.2,30.06,South,180,8.7,12.3,13,0.00,,,0.00,WUHU216HW,2013-04-26 23:22:00,
2013-04-26 17:27:00,78.7,20.9,30.06,West,270,7.8,12.1,12,0.00,,,0.00,WUHU216HW,2013-04-26 23:27:00,
2013-04-26 17:32:00,78.1,20.4,30.06,SW,225,11.9,12.3,12,0.00,,,0.00,WUHU216HW,2013-04-26 23:32:00,
2013-04-26 17:37:00,77.6,20.1,30.06,WSW,248,11.4,12.3,12,0.00,,,0.00,WUHU216HW,2013-04-26 23:37:00,
2013-04-26 17:42:00,78.1,20.4,30.06,SW,225,9.4,12.3,12,0.00,,,0.00,WUHU216HW,2013-04-26 23:42:00,
2013-04-26 17:49:00,78.1,20.4,30.05,SW,225,8.1,12.8,12,0.00,,,0.00,WUHU216HW,2013-04-26 23:49:00,
2013-04-26 17:53:00,77.9,20.3,30.05,SW,225,8.5,10.1,12,0.00,,,0.00,WUHU216HW,2013-04-26 23:53:00,
2013-04-26 18:05:00,78.5,20.7,30.05,SW,225,9.2,9.8,12,0.00,,,0.00,WUHU216HW,2013-04-27 00:05:00,
2013-04-26 18:11:00,77.9,20.3,30.05,WSW,248,6.7,10.5,12,0.00,,,0.00,WUHU216HW,2013-04-27 00:11:00,
2013-04-26 18:16:00,77.8,20.3,30.06,WSW,248,10.1,13.9,12,0.00,,,0.00,WUHU216HW,2013-04-27 00:16:00,
2013-04-26 18:21:00,77.4,20.0,30.06,WSW,248,7.6,13.9,12,0.00,,,0.00,WUHU216HW,2013-04-27 00:21:00,
2013-04-26 18:26:00,77.0,19.7,30.06,West,270,10.1,13.4,12,0.00,,,0.00,WUHU216HW,2013-04-27 00:26:00,
2013-04-26 18:31:00,76.3,19.1,30.06,West,270,8.7,13.4,12,0.00,,,0.00,WUHU216HW,2013-04-27 00:31:00,
2013-04-26 18:38:00,77.0,21.3,30.06,West,270,8.9,11.4,13,0.00,,,0.00,WUHU216HW,2013-04-27 00:38:00,
2013-04-26 18:43:00,77.2,21.5,30.06,WSW,248,9.8,12.8,13,0.00,,,0.00,WUHU216HW,2013-04-27 00:43:00,
2013-04-26 18:48:00,77.0,21.3,30.06,West,270,10.3,12.8,13,0.00,,,0.00,WUHU216HW,2013-04-27 00:48:00,
2013-04-26 18:53:00,76.0,20.5,30.06,WSW,248,8.1,12.3,13,0.00,,,0.00,WUHU216HW,2013-04-27 00:53:00,
2013-04-26 18:58:00,75.8,20.3,30.06,West,270,8.9,12.1,13,0.00,,,0.00,WUHU216HW,2013-04-27 00:58:00,
2013-04-26 19:03:00,75.6,20.2,30.06,West,270,8.9,11.6,13,0.00,,,0.00,WUHU216HW,2013-04-27 01:03:00,
2013-04-26 19:08:00,75.6,23.5,30.06,West,270,9.4,11.4,15,0.00,,,0.00,WUHU216HW,2013-04-27 01:08:00,
2013-04-26 19:13:00,75.8,23.7,30.06,West,270,6.9,11.4,15,0.00,,,0.00,WUHU216HW,2013-04-27 01:13:00,
2013-04-26 19:19:00,76.1,23.9,30.06,West,270,6.5,8.5,15,0.00,,,0.00,WUHU216HW,2013-04-27 01:19:00,
2013-04-26 19:24:00,76.0,23.8,30.06,WSW,248,9.8,9.8,15,0.00,,,0.00,WUHU216HW,2013-04-27 01:24:00,
2013-04-26 19:29:00,74.2,24.0,30.06,WSW,248,5.1,9.8,16,0.00,,,0.00,WUHU216HW,2013-04-27 01:29:00,
2013-04-26 19:34:00,72.4,24.2,30.06,West,270,5.1,8.1,17,0.00,,,0.00,WUHU216HW,2013-04-27 01:34:00,
2013-04-26 19:39:00,70.9,24.7,30.07,West,270,6.3,11.0,18,0.00,,,0.00,WUHU216HW,2013-04-27 01:39:00,
2013-04-26 19:44:00,69.8,23.8,30.07,WNW,293,7.2,11.0,18,0.00,,,0.00,WUHU216HW,2013-04-27 01:44:00,
2013-04-26 19:49:00,68.8,24.6,30.07,WNW,293,5.4,10.1,19,0.00,,,0.00,WUHU216HW,2013-04-27 01:49:00,
2013-04-26 19:54:00,68.0,26.6,30.07,West,270,7.4,9.2,21,0.00,,,0.00,WUHU216HW,2013-04-27 01:54:00,
2013-04-26 19:59:00,67.9,26.4,30.07,WNW,293,4.9,9.2,21,0.00,,,0.00,WUHU216HW,2013-04-27 01:59:00,
2013-04-26 20:04:00,67.3,25.9,30.07,WNW,293,3.8,7.4,21,0.00,,,0.00,WUHU216HW,2013-04-27 02:04:00,
2013-04-26 20:09:00,66.6,26.3,30.07,WNW,293,4.0,6.0,22,0.00,,,0.00,WUHU216HW,2013-04-27 02:09:00,
2013-04-26 20:14:00,65.7,25.5,30.07,West,270,3.1,6.0,22,0.00,,,0.00,WUHU216HW,2013-04-27 02:14:00,
2013-04-26 20:19:00,64.8,25.7,30.08,WNW,293,3.8,5.1,23,0.00,,,0.00,WUHU216HW,2013-04-27 02:19:00,